sensor_id;sensor_type;location;lat;lon;timestamp;P1;durP1;ratioP1;P2;durP2;ratioP2
9767;SDS011;4923;52.520;13.494;2023-07-31T00:00:09;2.10;;;1.00;;
9767;SDS011;4923;52.520;13.494;2023-07-31T00:02:56;1.63;;;0.90;;
9767;SDS011;4923;52.520;13.494;2023-07-31T00:05:43;2.57;;;1.13;;
9767;SDS011;4923;52.520;13.494;2023-07-31T00:08:30;1.23;;;0.90;;
9767;SDS011;4923;52.520;13.494;2023-07-31T00:11:17;2.10;;;0.90;;
9767;SDS011;4923;52.520;13.494;2023-07-31T00:14:04;3.97;;;1.30;;
9767;SDS011;4923;52.520;13.494;2023-07-31T00:16:52;1.87;;;1.27;;
9767;SDS011;4923;52.520;13.494;2023-07-31T00:19:39;1.70;;;1.00;;
9767;SDS011;4923;52.520;13.494;2023-07-31T00:22:25;5.20;;;1.00;;
9767;SDS011;4923;52.520;13.494;2023-07-31T00:25:12;0.80;;;0.80;;
9767;SDS011;4923;52.520;13.494;2023-07-31T00:27:59;1.80;;;0.80;;
9767;SDS011;4923;52.520;13.494;2023-07-31T00:30:46;3.63;;;1.03;;
9767;SDS011;4923;52.520;13.494;2023-07-31T00:33:34;1.10;;;1.00;;
9767;SDS011;4923;52.520;13.494;2023-07-31T00:36:21;4.03;;;1.30;;
9767;SDS011;4923;52.520;13.494;2023-07-31T00:39:08;2.77;;;1.27;;
9767;SDS011;4923;52.520;13.494;2023-07-31T00:41:55;6.47;;;1.33;;
9767;SDS011;4923;52.520;13.494;2023-07-31T00:44:42;3.07;;;1.17;;
9767;SDS011;4923;52.520;13.494;2023-07-31T00:47:29;3.60;;;1.10;;
9767;SDS011;4923;52.520;13.494;2023-07-31T00:50:17;2.40;;;1.10;;
9767;SDS011;4923;52.520;13.494;2023-07-31T00:53:04;1.53;;;1.00;;
9767;SDS011;4923;52.520;13.494;2023-07-31T00:55:51;1.23;;;1.10;;
9767;SDS011;4923;52.520;13.494;2023-07-31T00:58:38;1.83;;;0.93;;
9767;SDS011;4923;52.520;13.494;2023-07-31T01:01:25;1.57;;;1.00;;
9767;SDS011;4923;52.520;13.494;2023-07-31T01:04:12;6.83;;;1.10;;
9767;SDS011;4923;52.520;13.494;2023-07-31T01:07:01;3.27;;;1.10;;
9767;SDS011;4923;52.520;13.494;2023-07-31T01:09:57;5.80;;;1.00;;
9767;SDS011;4923;52.520;13.494;2023-07-31T01:12:51;1.67;;;0.90;;
9767;SDS011;4923;52.520;13.494;2023-07-31T01:15:39;1.70;;;1.20;;
9767;SDS011;4923;52.520;13.494;2023-07-31T01:18:26;1.93;;;0.97;;
9767;SDS011;4923;52.520;13.494;2023-07-31T01:21:18;6.67;;;1.50;;
9767;SDS011;4923;52.520;13.494;2023-07-31T01:24:23;1.40;;;1.30;;
9767;SDS011;4923;52.520;13.494;2023-07-31T01:27:18;1.80;;;1.10;;
9767;SDS011;4923;52.520;13.494;2023-07-31T01:30:11;1.10;;;1.00;;
9767;SDS011;4923;52.520;13.494;2023-07-31T01:33:03;3.23;;;1.03;;
9767;SDS011;4923;52.520;13.494;2023-07-31T01:35:52;1.57;;;1.00;;
9767;SDS011;4923;52.520;13.494;2023-07-31T01:38:40;6.90;;;1.27;;
9767;SDS011;4923;52.520;13.494;2023-07-31T01:41:26;4.30;;;1.30;;
9767;SDS011;4923;52.520;13.494;2023-07-31T01:44:15;4.40;;;1.10;;
9767;SDS011;4923;52.520;13.494;2023-07-31T01:47:02;3.03;;;1.63;;
9767;SDS011;4923;52.520;13.494;2023-07-31T01:49:49;4.70;;;1.33;;
9767;SDS011;4923;52.520;13.494;2023-07-31T01:52:36;2.43;;;1.53;;
9767;SDS011;4923;52.520;13.494;2023-07-31T01:55:23;4.13;;;1.33;;
9767;SDS011;4923;52.520;13.494;2023-07-31T01:58:09;3.03;;;1.20;;
9767;SDS011;4923;52.520;13.494;2023-07-31T02:00:58;1.30;;;1.20;;
9767;SDS011;4923;52.520;13.494;2023-07-31T02:03:44;1.60;;;1.50;;
9767;SDS011;4923;52.520;13.494;2023-07-31T02:06:31;1.07;;;1.07;;
9767;SDS011;4923;52.520;13.494;2023-07-31T02:09:18;2.40;;;1.40;;
9767;SDS011;4923;52.520;13.494;2023-07-31T02:12:05;3.03;;;1.30;;
9767;SDS011;4923;52.520;13.494;2023-07-31T02:14:53;5.30;;;1.40;;
9767;SDS011;4923;52.520;13.494;2023-07-31T02:17:41;1.97;;;1.53;;
9767;SDS011;4923;52.520;13.494;2023-07-31T02:20:28;1.90;;;1.27;;
9767;SDS011;4923;52.520;13.494;2023-07-31T02:23:15;2.80;;;1.13;;
9767;SDS011;4923;52.520;13.494;2023-07-31T02:26:02;4.20;;;1.70;;
9767;SDS011;4923;52.520;13.494;2023-07-31T02:28:49;1.60;;;1.30;;
9767;SDS011;4923;52.520;13.494;2023-07-31T02:31:36;5.20;;;1.10;;
9767;SDS011;4923;52.520;13.494;2023-07-31T02:34:24;2.23;;;1.83;;
9767;SDS011;4923;52.520;13.494;2023-07-31T02:37:11;4.57;;;2.07;;
9767;SDS011;4923;52.520;13.494;2023-07-31T02:39:58;3.23;;;1.70;;
9767;SDS011;4923;52.520;13.494;2023-07-31T02:42:44;2.20;;;1.40;;
9767;SDS011;4923;52.520;13.494;2023-07-31T02:45:31;1.80;;;1.10;;
9767;SDS011;4923;52.520;13.494;2023-07-31T02:48:18;1.00;;;1.00;;
9767;SDS011;4923;52.520;13.494;2023-07-31T02:51:06;2.43;;;1.50;;
9767;SDS011;4923;52.520;13.494;2023-07-31T02:53:53;2.10;;;1.70;;
9767;SDS011;4923;52.520;13.494;2023-07-31T02:56:40;4.20;;;1.77;;
9767;SDS011;4923;52.520;13.494;2023-07-31T02:59:27;4.00;;;1.70;;
9767;SDS011;4923;52.520;13.494;2023-07-31T03:02:15;2.97;;;1.50;;
9767;SDS011;4923;52.520;13.494;2023-07-31T03:05:02;5.33;;;1.53;;
9767;SDS011;4923;52.520;13.494;2023-07-31T03:07:50;5.47;;;1.80;;
9767;SDS011;4923;52.520;13.494;2023-07-31T03:10:37;2.43;;;1.57;;
9767;SDS011;4923;52.520;13.494;2023-07-31T03:13:24;4.23;;;1.70;;
9767;SDS011;4923;52.520;13.494;2023-07-31T03:16:10;2.17;;;2.03;;
9767;SDS011;4923;52.520;13.494;2023-07-31T03:18:57;4.70;;;2.03;;
9767;SDS011;4923;52.520;13.494;2023-07-31T03:21:44;4.37;;;2.17;;
9767;SDS011;4923;52.520;13.494;2023-07-31T03:24:33;6.80;;;2.30;;
9767;SDS011;4923;52.520;13.494;2023-07-31T03:27:19;3.90;;;2.30;;
9767;SDS011;4923;52.520;13.494;2023-07-31T03:30:07;10.67;;;2.50;;
9767;SDS011;4923;52.520;13.494;2023-07-31T03:32:54;7.10;;;2.73;;
9767;SDS011;4923;52.520;13.494;2023-07-31T03:35:41;2.90;;;2.30;;
9767;SDS011;4923;52.520;13.494;2023-07-31T03:38:28;3.97;;;2.03;;
9767;SDS011;4923;52.520;13.494;2023-07-31T03:41:16;4.33;;;2.90;;
9767;SDS011;4923;52.520;13.494;2023-07-31T03:44:03;5.90;;;2.60;;
9767;SDS011;4923;52.520;13.494;2023-07-31T03:46:49;3.57;;;2.07;;
9767;SDS011;4923;52.520;13.494;2023-07-31T03:49:36;3.13;;;2.33;;
9767;SDS011;4923;52.520;13.494;2023-07-31T03:52:23;6.53;;;2.70;;
9767;SDS011;4923;52.520;13.494;2023-07-31T03:55:10;3.37;;;3.07;;
9767;SDS011;4923;52.520;13.494;2023-07-31T03:57:58;12.10;;;2.60;;
9767;SDS011;4923;52.520;13.494;2023-07-31T04:00:46;3.13;;;2.70;;
9767;SDS011;4923;52.520;13.494;2023-07-31T04:03:33;3.83;;;2.83;;
9767;SDS011;4923;52.520;13.494;2023-07-31T04:06:20;3.10;;;2.37;;
9767;SDS011;4923;52.520;13.494;2023-07-31T04:09:07;5.33;;;3.00;;
9767;SDS011;4923;52.520;13.494;2023-07-31T04:11:54;5.60;;;2.50;;
9767;SDS011;4923;52.520;13.494;2023-07-31T04:14:42;8.50;;;3.63;;
9767;SDS011;4923;52.520;13.494;2023-07-31T04:17:28;4.07;;;2.53;;
9767;SDS011;4923;52.520;13.494;2023-07-31T04:20:15;5.60;;;2.50;;
9767;SDS011;4923;52.520;13.494;2023-07-31T04:23:02;4.97;;;2.70;;
9767;SDS011;4923;52.520;13.494;2023-07-31T04:25:49;4.63;;;2.17;;
9767;SDS011;4923;52.520;13.494;2023-07-31T04:28:36;2.67;;;2.30;;
9767;SDS011;4923;52.520;13.494;2023-07-31T04:31:24;2.90;;;2.37;;
9767;SDS011;4923;52.520;13.494;2023-07-31T04:34:11;6.23;;;2.50;;
9767;SDS011;4923;52.520;13.494;2023-07-31T04:36:58;7.37;;;2.90;;
9767;SDS011;4923;52.520;13.494;2023-07-31T04:39:45;2.20;;;2.10;;
9767;SDS011;4923;52.520;13.494;2023-07-31T04:42:32;3.13;;;1.97;;
9767;SDS011;4923;52.520;13.494;2023-07-31T04:45:19;1.73;;;1.50;;
9767;SDS011;4923;52.520;13.494;2023-07-31T04:48:08;1.90;;;1.80;;
9767;SDS011;4923;52.520;13.494;2023-07-31T04:50:54;9.07;;;2.57;;
9767;SDS011;4923;52.520;13.494;2023-07-31T04:53:41;5.67;;;2.10;;
9767;SDS011;4923;52.520;13.494;2023-07-31T04:56:28;2.20;;;2.10;;
9767;SDS011;4923;52.520;13.494;2023-07-31T04:59:15;4.00;;;2.10;;
9767;SDS011;4923;52.520;13.494;2023-07-31T05:02:02;5.97;;;2.00;;
9767;SDS011;4923;52.520;13.494;2023-07-31T05:04:50;2.50;;;2.30;;
9767;SDS011;4923;52.520;13.494;2023-07-31T05:07:37;4.53;;;2.30;;
9767;SDS011;4923;52.520;13.494;2023-07-31T05:10:24;3.37;;;2.17;;
9767;SDS011;4923;52.520;13.494;2023-07-31T05:13:11;5.43;;;2.10;;
9767;SDS011;4923;52.520;13.494;2023-07-31T05:15:58;3.57;;;2.83;;
9767;SDS011;4923;52.520;13.494;2023-07-31T05:18:45;8.03;;;1.70;;
9767;SDS011;4923;52.520;13.494;2023-07-31T05:21:33;3.10;;;2.23;;
9767;SDS011;4923;52.520;13.494;2023-07-31T05:24:19;4.03;;;1.70;;
9767;SDS011;4923;52.520;13.494;2023-07-31T05:27:06;6.37;;;2.60;;
9767;SDS011;4923;52.520;13.494;2023-07-31T05:29:54;12.53;;;1.87;;
9767;SDS011;4923;52.520;13.494;2023-07-31T05:32:41;1.70;;;1.60;;
9767;SDS011;4923;52.520;13.494;2023-07-31T05:35:29;2.83;;;1.57;;
9767;SDS011;4923;52.520;13.494;2023-07-31T05:38:17;5.10;;;1.60;;
9767;SDS011;4923;52.520;13.494;2023-07-31T05:41:04;6.37;;;1.63;;
9767;SDS011;4923;52.520;13.494;2023-07-31T05:43:51;8.63;;;1.70;;
9767;SDS011;4923;52.520;13.494;2023-07-31T05:46:38;14.83;;;1.43;;
9767;SDS011;4923;52.520;13.494;2023-07-31T05:49:24;5.10;;;1.40;;
9767;SDS011;4923;52.520;13.494;2023-07-31T05:52:11;8.93;;;1.70;;
9767;SDS011;4923;52.520;13.494;2023-07-31T05:54:59;3.30;;;1.60;;
9767;SDS011;4923;52.520;13.494;2023-07-31T05:57:46;2.87;;;1.30;;
9767;SDS011;4923;52.520;13.494;2023-07-31T06:00:33;3.50;;;1.47;;
9767;SDS011;4923;52.520;13.494;2023-07-31T06:03:20;3.47;;;1.73;;
9767;SDS011;4923;52.520;13.494;2023-07-31T06:06:07;3.03;;;1.50;;
9767;SDS011;4923;52.520;13.494;2023-07-31T06:08:54;3.53;;;1.17;;
9767;SDS011;4923;52.520;13.494;2023-07-31T06:11:42;2.30;;;1.37;;
9767;SDS011;4923;52.520;13.494;2023-07-31T06:14:29;5.93;;;1.70;;
9767;SDS011;4923;52.520;13.494;2023-07-31T06:17:16;1.53;;;1.43;;
9767;SDS011;4923;52.520;13.494;2023-07-31T06:20:04;4.77;;;1.60;;
9767;SDS011;4923;52.520;13.494;2023-07-31T06:22:52;4.37;;;1.90;;
9767;SDS011;4923;52.520;13.494;2023-07-31T06:25:39;5.57;;;1.60;;
9767;SDS011;4923;52.520;13.494;2023-07-31T06:28:28;4.50;;;1.50;;
9767;SDS011;4923;52.520;13.494;2023-07-31T06:31:15;4.13;;;1.10;;
9767;SDS011;4923;52.520;13.494;2023-07-31T06:34:05;3.00;;;1.40;;
9767;SDS011;4923;52.520;13.494;2023-07-31T06:36:52;3.60;;;1.30;;
9767;SDS011;4923;52.520;13.494;2023-07-31T06:39:39;2.57;;;1.20;;
9767;SDS011;4923;52.520;13.494;2023-07-31T06:42:26;6.77;;;1.20;;
9767;SDS011;4923;52.520;13.494;2023-07-31T06:45:14;7.10;;;1.93;;
9767;SDS011;4923;52.520;13.494;2023-07-31T06:48:01;5.60;;;1.73;;
9767;SDS011;4923;52.520;13.494;2023-07-31T06:50:49;3.33;;;1.37;;
9767;SDS011;4923;52.520;13.494;2023-07-31T06:53:36;2.50;;;1.73;;
9767;SDS011;4923;52.520;13.494;2023-07-31T06:56:22;3.63;;;1.30;;
9767;SDS011;4923;52.520;13.494;2023-07-31T06:59:09;3.00;;;1.77;;
9767;SDS011;4923;52.520;13.494;2023-07-31T07:01:57;3.73;;;1.30;;
9767;SDS011;4923;52.520;13.494;2023-07-31T07:04:44;1.60;;;1.03;;
9767;SDS011;4923;52.520;13.494;2023-07-31T07:07:31;5.27;;;1.67;;
9767;SDS011;4923;52.520;13.494;2023-07-31T07:10:18;3.83;;;1.53;;
9767;SDS011;4923;52.520;13.494;2023-07-31T07:13:05;2.03;;;1.47;;
9767;SDS011;4923;52.520;13.494;2023-07-31T07:15:52;5.40;;;1.60;;
9767;SDS011;4923;52.520;13.494;2023-07-31T07:18:40;4.90;;;1.10;;
9767;SDS011;4923;52.520;13.494;2023-07-31T07:21:27;1.73;;;1.63;;
9767;SDS011;4923;52.520;13.494;2023-07-31T07:24:14;2.77;;;1.40;;
9767;SDS011;4923;52.520;13.494;2023-07-31T07:27:01;4.70;;;1.60;;
9767;SDS011;4923;52.520;13.494;2023-07-31T07:29:49;4.73;;;1.37;;
9767;SDS011;4923;52.520;13.494;2023-07-31T07:32:37;1.37;;;1.27;;
9767;SDS011;4923;52.520;13.494;2023-07-31T07:35:26;1.80;;;1.30;;
9767;SDS011;4923;52.520;13.494;2023-07-31T07:38:13;10.53;;;1.80;;
9767;SDS011;4923;52.520;13.494;2023-07-31T07:41:00;2.83;;;1.50;;
9767;SDS011;4923;52.520;13.494;2023-07-31T07:43:47;1.60;;;1.00;;
9767;SDS011;4923;52.520;13.494;2023-07-31T07:46:34;1.50;;;1.20;;
9767;SDS011;4923;52.520;13.494;2023-07-31T07:49:21;1.30;;;1.20;;
9767;SDS011;4923;52.520;13.494;2023-07-31T07:52:10;2.47;;;1.40;;
9767;SDS011;4923;52.520;13.494;2023-07-31T07:54:56;1.10;;;1.10;;
9767;SDS011;4923;52.520;13.494;2023-07-31T07:57:43;1.20;;;1.10;;
9767;SDS011;4923;52.520;13.494;2023-07-31T08:00:30;3.17;;;1.20;;
9767;SDS011;4923;52.520;13.494;2023-07-31T08:03:17;2.23;;;1.33;;
9767;SDS011;4923;52.520;13.494;2023-07-31T08:06:04;1.57;;;1.10;;
9767;SDS011;4923;52.520;13.494;2023-07-31T08:08:52;2.53;;;1.37;;
9767;SDS011;4923;52.520;13.494;2023-07-31T08:11:39;2.97;;;1.13;;
9767;SDS011;4923;52.520;13.494;2023-07-31T08:14:26;1.20;;;1.03;;
9767;SDS011;4923;52.520;13.494;2023-07-31T08:17:13;1.73;;;0.90;;
9767;SDS011;4923;52.520;13.494;2023-07-31T08:20:00;2.10;;;0.80;;
9767;SDS011;4923;52.520;13.494;2023-07-31T08:22:46;2.03;;;1.10;;
9767;SDS011;4923;52.520;13.494;2023-07-31T08:25:35;0.73;;;0.73;;
9767;SDS011;4923;52.520;13.494;2023-07-31T08:28:22;2.40;;;1.27;;
9767;SDS011;4923;52.520;13.494;2023-07-31T08:31:09;1.30;;;1.20;;
9767;SDS011;4923;52.520;13.494;2023-07-31T08:33:56;2.83;;;1.30;;
9767;SDS011;4923;52.520;13.494;2023-07-31T08:36:43;1.60;;;0.80;;
9767;SDS011;4923;52.520;13.494;2023-07-31T08:39:30;2.20;;;0.93;;
9767;SDS011;4923;52.520;13.494;2023-07-31T08:42:18;5.00;;;1.07;;
9767;SDS011;4923;52.520;13.494;2023-07-31T08:45:06;0.87;;;0.87;;
9767;SDS011;4923;52.520;13.494;2023-07-31T08:47:54;0.90;;;0.90;;
9767;SDS011;4923;52.520;13.494;2023-07-31T08:50:42;1.00;;;0.90;;
9767;SDS011;4923;52.520;13.494;2023-07-31T08:53:29;3.23;;;0.97;;
9767;SDS011;4923;52.520;13.494;2023-07-31T08:56:16;0.90;;;0.80;;
9767;SDS011;4923;52.520;13.494;2023-07-31T08:59:05;0.80;;;0.80;;
9767;SDS011;4923;52.520;13.494;2023-07-31T09:01:53;1.00;;;1.00;;
9767;SDS011;4923;52.520;13.494;2023-07-31T09:04:43;1.57;;;1.03;;
9767;SDS011;4923;52.520;13.494;2023-07-31T09:07:31;0.70;;;0.70;;
9767;SDS011;4923;52.520;13.494;2023-07-31T09:10:20;2.13;;;0.70;;
9767;SDS011;4923;52.520;13.494;2023-07-31T09:13:06;4.00;;;1.00;;
9767;SDS011;4923;52.520;13.494;2023-07-31T09:15:55;2.37;;;1.20;;
9767;SDS011;4923;52.520;13.494;2023-07-31T09:18:52;1.50;;;0.90;;
9767;SDS011;4923;52.520;13.494;2023-07-31T09:21:45;1.20;;;1.10;;
9767;SDS011;4923;52.520;13.494;2023-07-31T09:24:34;1.40;;;1.20;;
9767;SDS011;4923;52.520;13.494;2023-07-31T09:27:21;1.00;;;0.87;;
9767;SDS011;4923;52.520;13.494;2023-07-31T09:30:08;2.60;;;0.73;;
9767;SDS011;4923;52.520;13.494;2023-07-31T09:33:01;2.00;;;0.83;;
9767;SDS011;4923;52.520;13.494;2023-07-31T09:35:51;3.07;;;0.80;;
9767;SDS011;4923;52.520;13.494;2023-07-31T09:38:38;0.70;;;0.70;;
9767;SDS011;4923;52.520;13.494;2023-07-31T09:41:25;5.40;;;0.93;;
9767;SDS011;4923;52.520;13.494;2023-07-31T09:44:12;4.20;;;2.50;;
9767;SDS011;4923;52.520;13.494;2023-07-31T09:46:58;0.60;;;0.60;;
9767;SDS011;4923;52.520;13.494;2023-07-31T09:49:47;0.73;;;0.57;;
9767;SDS011;4923;52.520;13.494;2023-07-31T09:52:34;2.57;;;0.63;;
9767;SDS011;4923;52.520;13.494;2023-07-31T09:55:23;1.13;;;0.80;;
9767;SDS011;4923;52.520;13.494;2023-07-31T09:58:12;2.13;;;0.70;;
9767;SDS011;4923;52.520;13.494;2023-07-31T10:00:59;0.80;;;0.80;;
9767;SDS011;4923;52.520;13.494;2023-07-31T10:03:48;0.60;;;0.60;;
9767;SDS011;4923;52.520;13.494;2023-07-31T10:06:37;0.93;;;0.77;;
9767;SDS011;4923;52.520;13.494;2023-07-31T10:09:25;0.60;;;0.60;;
9767;SDS011;4923;52.520;13.494;2023-07-31T10:12:18;0.63;;;0.63;;
9767;SDS011;4923;52.520;13.494;2023-07-31T10:15:08;1.10;;;0.77;;
9767;SDS011;4923;52.520;13.494;2023-07-31T10:17:56;1.00;;;0.83;;
9767;SDS011;4923;52.520;13.494;2023-07-31T10:20:44;2.90;;;1.10;;
9767;SDS011;4923;52.520;13.494;2023-07-31T10:23:33;2.87;;;1.03;;
9767;SDS011;4923;52.520;13.494;2023-07-31T10:26:20;0.97;;;0.97;;
9767;SDS011;4923;52.520;13.494;2023-07-31T10:29:09;1.40;;;1.20;;
9767;SDS011;4923;52.520;13.494;2023-07-31T10:31:57;5.37;;;2.23;;
9767;SDS011;4923;52.520;13.494;2023-07-31T10:34:45;3.23;;;1.53;;
9767;SDS011;4923;52.520;13.494;2023-07-31T10:37:36;1.93;;;1.50;;
9767;SDS011;4923;52.520;13.494;2023-07-31T10:40:25;8.73;;;1.53;;
9767;SDS011;4923;52.520;13.494;2023-07-31T10:43:23;1.83;;;1.50;;
9767;SDS011;4923;52.520;13.494;2023-07-31T10:46:11;5.67;;;1.57;;
9767;SDS011;4923;52.520;13.494;2023-07-31T10:49:00;6.10;;;2.10;;
9767;SDS011;4923;52.520;13.494;2023-07-31T10:51:48;2.30;;;1.83;;
9767;SDS011;4923;52.520;13.494;2023-07-31T10:54:35;1.80;;;1.67;;
9767;SDS011;4923;52.520;13.494;2023-07-31T10:57:23;1.63;;;1.43;;
9767;SDS011;4923;52.520;13.494;2023-07-31T11:00:20;2.23;;;1.93;;
9767;SDS011;4923;52.520;13.494;2023-07-31T11:03:10;1.50;;;1.40;;
9767;SDS011;4923;52.520;13.494;2023-07-31T11:06:00;1.77;;;1.60;;
9767;SDS011;4923;52.520;13.494;2023-07-31T11:08:49;6.73;;;2.23;;
9767;SDS011;4923;52.520;13.494;2023-07-31T11:11:37;3.33;;;1.97;;
9767;SDS011;4923;52.520;13.494;2023-07-31T11:14:25;4.10;;;1.80;;
9767;SDS011;4923;52.520;13.494;2023-07-31T11:17:12;2.13;;;1.93;;
9767;SDS011;4923;52.520;13.494;2023-07-31T11:19:59;2.07;;;1.50;;
9767;SDS011;4923;52.520;13.494;2023-07-31T11:22:46;2.77;;;2.33;;
9767;SDS011;4923;52.520;13.494;2023-07-31T11:25:33;2.30;;;2.07;;
9767;SDS011;4923;52.520;13.494;2023-07-31T11:28:20;4.23;;;1.87;;
9767;SDS011;4923;52.520;13.494;2023-07-31T11:31:09;4.20;;;1.60;;
9767;SDS011;4923;52.520;13.494;2023-07-31T11:34:04;2.30;;;1.97;;
9767;SDS011;4923;52.520;13.494;2023-07-31T11:36:54;2.77;;;2.10;;
9767;SDS011;4923;52.520;13.494;2023-07-31T11:39:41;1.60;;;1.60;;
9767;SDS011;4923;52.520;13.494;2023-07-31T11:42:28;7.07;;;2.40;;
9767;SDS011;4923;52.520;13.494;2023-07-31T11:45:15;1.97;;;1.87;;
9767;SDS011;4923;52.520;13.494;2023-07-31T11:48:03;1.73;;;1.63;;
9767;SDS011;4923;52.520;13.494;2023-07-31T11:50:50;1.60;;;1.50;;
9767;SDS011;4923;52.520;13.494;2023-07-31T11:53:39;1.70;;;1.60;;
9767;SDS011;4923;52.520;13.494;2023-07-31T11:56:29;2.60;;;1.40;;
9767;SDS011;4923;52.520;13.494;2023-07-31T11:59:16;4.30;;;1.97;;
9767;SDS011;4923;52.520;13.494;2023-07-31T12:02:03;1.40;;;1.27;;
9767;SDS011;4923;52.520;13.494;2023-07-31T12:04:52;1.73;;;1.63;;
9767;SDS011;4923;52.520;13.494;2023-07-31T12:07:48;1.73;;;1.63;;
9767;SDS011;4923;52.520;13.494;2023-07-31T12:10:36;2.10;;;1.90;;
9767;SDS011;4923;52.520;13.494;2023-07-31T12:13:26;1.50;;;1.40;;
9767;SDS011;4923;52.520;13.494;2023-07-31T12:16:13;2.00;;;1.83;;
9767;SDS011;4923;52.520;13.494;2023-07-31T12:19:00;1.67;;;1.57;;
9767;SDS011;4923;52.520;13.494;2023-07-31T12:21:48;9.23;;;1.70;;
9767;SDS011;4923;52.520;13.494;2023-07-31T12:24:35;4.30;;;2.30;;
9767;SDS011;4923;52.520;13.494;2023-07-31T12:27:23;3.17;;;1.60;;
9767;SDS011;4923;52.520;13.494;2023-07-31T12:30:25;2.60;;;1.77;;
9767;SDS011;4923;52.520;13.494;2023-07-31T12:33:13;1.60;;;1.57;;
9767;SDS011;4923;52.520;13.494;2023-07-31T12:36:01;1.40;;;1.30;;
9767;SDS011;4923;52.520;13.494;2023-07-31T12:38:51;1.83;;;1.20;;
9767;SDS011;4923;52.520;13.494;2023-07-31T12:41:38;1.43;;;1.27;;
9767;SDS011;4923;52.520;13.494;2023-07-31T12:44:25;1.20;;;1.20;;
9767;SDS011;4923;52.520;13.494;2023-07-31T12:47:12;1.63;;;1.30;;
9767;SDS011;4923;52.520;13.494;2023-07-31T12:50:00;3.03;;;1.70;;
9767;SDS011;4923;52.520;13.494;2023-07-31T12:52:47;2.40;;;1.50;;
9767;SDS011;4923;52.520;13.494;2023-07-31T12:55:35;1.77;;;1.67;;
9767;SDS011;4923;52.520;13.494;2023-07-31T12:58:22;1.63;;;1.10;;
9767;SDS011;4923;52.520;13.494;2023-07-31T13:01:09;1.50;;;1.40;;
9767;SDS011;4923;52.520;13.494;2023-07-31T13:03:56;1.20;;;1.10;;
9767;SDS011;4923;52.520;13.494;2023-07-31T13:06:43;1.43;;;1.00;;
9767;SDS011;4923;52.520;13.494;2023-07-31T13:09:31;2.13;;;1.33;;
9767;SDS011;4923;52.520;13.494;2023-07-31T13:12:19;3.67;;;0.90;;
9767;SDS011;4923;52.520;13.494;2023-07-31T13:15:06;2.00;;;1.20;;
9767;SDS011;4923;52.520;13.494;2023-07-31T13:17:53;1.60;;;1.17;;
9767;SDS011;4923;52.520;13.494;2023-07-31T13:20:41;2.60;;;1.20;;
9767;SDS011;4923;52.520;13.494;2023-07-31T13:23:28;1.30;;;1.20;;
9767;SDS011;4923;52.520;13.494;2023-07-31T13:26:14;1.13;;;0.90;;
9767;SDS011;4923;52.520;13.494;2023-07-31T13:29:03;0.80;;;0.80;;
9767;SDS011;4923;52.520;13.494;2023-07-31T13:31:49;1.17;;;0.90;;
9767;SDS011;4923;52.520;13.494;2023-07-31T13:34:36;0.83;;;0.83;;
9767;SDS011;4923;52.520;13.494;2023-07-31T13:37:23;2.87;;;1.67;;
9767;SDS011;4923;52.520;13.494;2023-07-31T13:40:10;2.07;;;1.40;;
9767;SDS011;4923;52.520;13.494;2023-07-31T13:42:57;1.90;;;1.80;;
9767;SDS011;4923;52.520;13.494;2023-07-31T13:45:46;5.60;;;1.53;;
9767;SDS011;4923;52.520;13.494;2023-07-31T13:48:34;2.10;;;1.13;;
9767;SDS011;4923;52.520;13.494;2023-07-31T13:51:21;1.33;;;1.10;;
9767;SDS011;4923;52.520;13.494;2023-07-31T13:54:08;1.60;;;1.50;;
9767;SDS011;4923;52.520;13.494;2023-07-31T13:56:56;3.03;;;1.73;;
9767;SDS011;4923;52.520;13.494;2023-07-31T13:59:43;2.67;;;1.40;;
9767;SDS011;4923;52.520;13.494;2023-07-31T14:02:31;4.80;;;1.57;;
9767;SDS011;4923;52.520;13.494;2023-07-31T14:05:18;1.67;;;1.57;;
9767;SDS011;4923;52.520;13.494;2023-07-31T14:08:06;2.10;;;1.90;;
9767;SDS011;4923;52.520;13.494;2023-07-31T14:10:52;8.30;;;1.47;;
9767;SDS011;4923;52.520;13.494;2023-07-31T14:13:39;1.40;;;1.40;;
9767;SDS011;4923;52.520;13.494;2023-07-31T14:16:26;2.07;;;1.97;;
9767;SDS011;4923;52.520;13.494;2023-07-31T14:19:15;1.67;;;1.57;;
9767;SDS011;4923;52.520;13.494;2023-07-31T14:22:02;6.33;;;1.63;;
9767;SDS011;4923;52.520;13.494;2023-07-31T14:24:49;6.30;;;1.60;;
9767;SDS011;4923;52.520;13.494;2023-07-31T14:27:35;2.00;;;1.63;;
9767;SDS011;4923;52.520;13.494;2023-07-31T14:30:22;2.00;;;1.57;;
9767;SDS011;4923;52.520;13.494;2023-07-31T14:33:10;2.10;;;1.90;;
9767;SDS011;4923;52.520;13.494;2023-07-31T14:35:58;1.73;;;1.63;;
9767;SDS011;4923;52.520;13.494;2023-07-31T14:38:45;2.93;;;1.57;;
9767;SDS011;4923;52.520;13.494;2023-07-31T14:41:32;2.93;;;1.73;;
9767;SDS011;4923;52.520;13.494;2023-07-31T14:44:19;1.73;;;1.50;;
9767;SDS011;4923;52.520;13.494;2023-07-31T14:47:06;3.83;;;1.33;;
9767;SDS011;4923;52.520;13.494;2023-07-31T14:49:53;5.20;;;2.10;;
9767;SDS011;4923;52.520;13.494;2023-07-31T14:52:41;2.30;;;1.67;;
9767;SDS011;4923;52.520;13.494;2023-07-31T14:55:28;3.60;;;1.93;;
9767;SDS011;4923;52.520;13.494;2023-07-31T14:58:15;4.20;;;1.57;;
9767;SDS011;4923;52.520;13.494;2023-07-31T15:01:03;2.87;;;1.60;;
9767;SDS011;4923;52.520;13.494;2023-07-31T15:03:50;4.63;;;1.40;;
9767;SDS011;4923;52.520;13.494;2023-07-31T15:06:36;1.40;;;1.40;;
9767;SDS011;4923;52.520;13.494;2023-07-31T15:09:25;6.23;;;1.63;;
9767;SDS011;4923;52.520;13.494;2023-07-31T15:12:11;1.70;;;1.60;;
9767;SDS011;4923;52.520;13.494;2023-07-31T15:14:58;2.30;;;1.90;;
9767;SDS011;4923;52.520;13.494;2023-07-31T15:17:45;2.37;;;2.17;;
9767;SDS011;4923;52.520;13.494;2023-07-31T15:20:32;6.03;;;1.80;;
9767;SDS011;4923;52.520;13.494;2023-07-31T15:23:19;3.13;;;1.87;;
9767;SDS011;4923;52.520;13.494;2023-07-31T15:26:07;2.07;;;1.97;;
9767;SDS011;4923;52.520;13.494;2023-07-31T15:28:55;2.03;;;1.80;;
9767;SDS011;4923;52.520;13.494;2023-07-31T15:31:46;2.00;;;1.90;;
9767;SDS011;4923;52.520;13.494;2023-07-31T15:34:34;4.00;;;2.00;;
9767;SDS011;4923;52.520;13.494;2023-07-31T15:37:21;5.97;;;2.13;;
9767;SDS011;4923;52.520;13.494;2023-07-31T15:40:08;3.20;;;1.37;;
9767;SDS011;4923;52.520;13.494;2023-07-31T15:42:56;1.50;;;1.50;;
9767;SDS011;4923;52.520;13.494;2023-07-31T15:45:45;2.80;;;1.80;;
9767;SDS011;4923;52.520;13.494;2023-07-31T15:48:32;1.30;;;1.30;;
9767;SDS011;4923;52.520;13.494;2023-07-31T15:51:19;15.67;;;2.27;;
9767;SDS011;4923;52.520;13.494;2023-07-31T15:54:06;5.30;;;2.50;;
9767;SDS011;4923;52.520;13.494;2023-07-31T15:56:53;2.60;;;1.50;;
9767;SDS011;4923;52.520;13.494;2023-07-31T15:59:41;3.83;;;1.50;;
9767;SDS011;4923;52.520;13.494;2023-07-31T16:02:28;2.97;;;1.40;;
9767;SDS011;4923;52.520;13.494;2023-07-31T16:05:14;1.67;;;1.63;;
9767;SDS011;4923;52.520;13.494;2023-07-31T16:08:01;1.20;;;1.20;;
9767;SDS011;4923;52.520;13.494;2023-07-31T16:10:48;2.33;;;2.17;;
9767;SDS011;4923;52.520;13.494;2023-07-31T16:13:36;1.60;;;1.30;;
9767;SDS011;4923;52.520;13.494;2023-07-31T16:16:24;2.03;;;1.93;;
9767;SDS011;4923;52.520;13.494;2023-07-31T16:19:12;2.27;;;2.10;;
9767;SDS011;4923;52.520;13.494;2023-07-31T16:21:59;2.67;;;2.47;;
9767;SDS011;4923;52.520;13.494;2023-07-31T16:24:46;4.30;;;1.97;;
9767;SDS011;4923;52.520;13.494;2023-07-31T16:27:33;2.77;;;2.57;;
9767;SDS011;4923;52.520;13.494;2023-07-31T16:30:19;3.80;;;2.73;;
9767;SDS011;4923;52.520;13.494;2023-07-31T16:33:08;3.80;;;1.90;;
9767;SDS011;4923;52.520;13.494;2023-07-31T16:35:54;2.40;;;2.00;;
9767;SDS011;4923;52.520;13.494;2023-07-31T16:38:41;1.80;;;1.70;;
9767;SDS011;4923;52.520;13.494;2023-07-31T16:41:28;2.20;;;2.10;;
9767;SDS011;4923;52.520;13.494;2023-07-31T16:44:15;2.40;;;2.00;;
9767;SDS011;4923;52.520;13.494;2023-07-31T16:47:02;2.60;;;2.40;;
9767;SDS011;4923;52.520;13.494;2023-07-31T16:49:50;2.57;;;2.07;;
9767;SDS011;4923;52.520;13.494;2023-07-31T16:52:37;4.57;;;2.27;;
9767;SDS011;4923;52.520;13.494;2023-07-31T16:55:24;4.07;;;2.07;;
9767;SDS011;4923;52.520;13.494;2023-07-31T16:58:11;2.90;;;1.90;;
9767;SDS011;4923;52.520;13.494;2023-07-31T17:00:57;2.37;;;1.87;;
9767;SDS011;4923;52.520;13.494;2023-07-31T17:03:45;4.00;;;1.90;;